EZY1325 EGHH-LEIB
Flight info
| Callsign | EZY1325 |
|---|---|
| Flight time | N/A |
| Altitude | 35000 |
| Route | SAM Y8 GWC UN859 SOPIL DCT BALAN DCT EVPOK DCT NARAK DCT GAI DCT LOMRA DCT ROCAN/N0462F310 DCT PUMAL N859 BCN Z174 CORDA |
| Aircraft | A320/M-SDE3FGHIRWY/LB1 |
Departure
| Time | 2026-05-05 19:52 |
|---|---|
| Airport | Bournemouth Airport (EGHH) |
Arrival
| Time | N/A |
|---|---|
| Airport | Ibiza Airport (LEIB) |
| Time | Latitude | Longitude | Altitude | Speed | Heading |
|---|---|---|---|---|---|
| 2026-05-05 19:17 | 50.77802 | -1.83381 | 43 ft | 0 kts | 76° |
| 2026-05-05 19:28 | 50.77802 | -1.83382 | 42 ft | 0 kts | 76° |
| 2026-05-05 19:41 | 50.77799 | -1.83404 | 38 ft | 4 kts | 86° |
| 2026-05-05 19:41 | 50.77801 | -1.83446 | 40 ft | 4 kts | 108° |
| 2026-05-05 19:42 | 50.77811 | -1.83485 | 39 ft | 4 kts | 108° |
| 2026-05-05 19:42 | 50.77815 | -1.83510 | 41 ft | 0 kts | 86° |
| 2026-05-05 19:44 | 50.77812 | -1.83491 | 41 ft | 6 kts | 111° |
| 2026-05-05 19:44 | 50.77739 | -1.83463 | 43 ft | 16 kts | 182° |
| 2026-05-05 19:44 | 50.77604 | -1.83498 | 43 ft | 19 kts | 205° |
| 2026-05-05 19:45 | 50.77575 | -1.83653 | 43 ft | 18 kts | 270° |
| 2026-05-05 19:45 | 50.77592 | -1.83914 | 44 ft | 28 kts | 282° |
| 2026-05-05 19:45 | 50.77641 | -1.84212 | 43 ft | 27 kts | 287° |
| 2026-05-05 19:45 | 50.77695 | -1.84475 | 45 ft | 21 kts | 285° |
| 2026-05-05 19:46 | 50.77716 | -1.84653 | 46 ft | 6 kts | 280° |
| 2026-05-05 19:46 | 50.77718 | -1.84673 | 46 ft | 0 kts | 281° |
| 2026-05-05 19:49 | 50.77719 | -1.84680 | 46 ft | 5 kts | 281° |
| 2026-05-05 19:49 | 50.77784 | -1.84928 | 46 ft | 23 kts | 300° |
| 2026-05-05 19:49 | 50.77821 | -1.85098 | 48 ft | 17 kts | 271° |
| 2026-05-05 19:50 | 50.77835 | -1.85182 | 48 ft | 3 kts | 324° |
| 2026-05-05 19:50 | 50.77849 | -1.85178 | 49 ft | 3 kts | 22° |
| 2026-05-05 19:50 | 50.77856 | -1.85156 | 49 ft | 0 kts | 71° |
| 2026-05-05 19:51 | 50.77868 | -1.85089 | 49 ft | 27 kts | 76° |
| 2026-05-05 19:51 | 50.77995 | -1.84335 | 43 ft | 112 kts | 75° |
| 2026-05-05 19:51 | 50.78249 | -1.82803 | 165 ft | 163 kts | 76° |
| 2026-05-05 19:52 | 50.78554 | -1.81038 | 863 ft | 170 kts | 69° |
| 2026-05-05 19:52 | 50.78888 | -1.79116 | 1485 ft | 193 kts | 72° |
| 2026-05-05 19:52 | 50.79237 | -1.76976 | 2126 ft | 212 kts | 72° |
| 2026-05-05 19:52 | 50.79615 | -1.74686 | 2796 ft | 217 kts | 69° |
| 2026-05-05 19:53 | 50.80326 | -1.72586 | 3474 ft | 219 kts | 56° |
| 2026-05-05 19:53 | 50.81144 | -1.70545 | 4210 ft | 221 kts | 56° |
| 2026-05-05 19:53 | 50.81975 | -1.68480 | 4925 ft | 224 kts | 57° |
| 2026-05-05 19:53 | 50.82815 | -1.66384 | 5606 ft | 227 kts | 57° |
| 2026-05-05 19:54 | 50.83675 | -1.64240 | 6230 ft | 236 kts | 57° |
| 2026-05-05 19:54 | 50.84599 | -1.61938 | 6572 ft | 258 kts | 57° |